createdAt,value
2022-11-18T00:00:28.601Z,3.85
2022-11-18T00:02:30.475Z,3.85
2022-11-18T00:04:31.600Z,3.85
2022-11-18T00:06:33.499Z,3.85
2022-11-18T00:08:34.989Z,3.85
2022-11-18T00:10:36.231Z,3.85
2022-11-18T00:12:38.193Z,3.85
2022-11-18T00:16:40.712Z,3.85
2022-11-18T00:18:41.753Z,3.85
2022-11-18T00:22:44.954Z,3.85
2022-11-18T00:24:46.435Z,3.85
2022-11-18T00:26:48.329Z,3.85
2022-11-18T00:28:49.462Z,3.85
2022-11-18T00:32:51.956Z,3.85
2022-11-18T00:34:53.129Z,3.85
2022-11-18T00:36:54.321Z,3.85
2022-11-18T00:38:55.796Z,3.85
2022-11-18T00:42:58.474Z,3.85
2022-11-18T00:45:00.254Z,3.85
2022-11-18T00:49:03.005Z,3.85
2022-11-18T00:51:04.284Z,3.84
2022-11-18T00:53:05.719Z,3.84
2022-11-18T00:55:07.090Z,3.85
2022-11-18T00:59:09.100Z,3.84
2022-11-18T01:01:10.514Z,3.85
2022-11-18T01:03:11.962Z,3.84
2022-11-18T01:05:13.330Z,3.85
2022-11-18T01:07:14.490Z,3.85
2022-11-18T01:09:16.447Z,3.84
2022-11-18T01:11:18.121Z,3.84
2022-11-18T01:15:21.039Z,3.84
2022-11-18T01:17:22.814Z,3.84
2022-11-18T01:19:24.730Z,3.84
2022-11-18T01:21:26.018Z,3.84
2022-11-18T01:23:27.168Z,3.84
2022-11-18T01:25:28.387Z,3.84
2022-11-18T01:27:29.799Z,3.84
2022-11-18T01:31:32.081Z,3.84
2022-11-18T01:33:33.575Z,3.84
2022-11-18T01:35:34.627Z,3.84
2022-11-18T01:37:36.385Z,3.84
2022-11-18T01:41:38.644Z,3.84
2022-11-18T01:43:40.405Z,3.84
2022-11-18T01:47:43.877Z,3.84
2022-11-18T01:49:45.444Z,3.84
2022-11-18T01:51:46.942Z,3.84
2022-11-18T01:53:48.346Z,3.84
2022-11-18T01:57:51.097Z,3.84
2022-11-18T01:59:52.404Z,3.84
2022-11-18T02:01:56.676Z,3.84
2022-11-18T02:03:54.963Z,3.84
2022-11-18T02:05:56.877Z,3.84
2022-11-18T02:07:58.192Z,3.84
2022-11-18T02:09:59.546Z,3.84
2022-11-18T02:14:02.520Z,3.83
2022-11-18T02:16:04.306Z,3.84
2022-11-18T02:18:05.889Z,3.83
2022-11-18T02:20:07.099Z,3.83
2022-11-18T02:24:09.844Z,3.84
2022-11-18T02:26:11.173Z,3.83
2022-11-18T02:28:12.751Z,3.83
2022-11-18T02:30:14.586Z,3.83
2022-11-18T02:32:15.762Z,3.83
2022-11-18T02:34:17.102Z,3.83
2022-11-18T02:36:18.570Z,3.83
2022-11-18T02:40:21.635Z,3.83
2022-11-18T02:42:22.926Z,3.83
2022-11-18T02:46:25.639Z,3.83
2022-11-18T02:48:27.441Z,3.83
2022-11-18T02:50:29.126Z,3.83
2022-11-18T02:52:30.082Z,3.83
2022-11-18T02:56:33.657Z,3.83
2022-11-18T02:58:35.344Z,3.83
2022-11-18T03:00:36.743Z,3.83
2022-11-18T03:02:38.217Z,3.83
2022-11-18T03:05:23.845Z,3.83
2022-11-18T03:07:25.024Z,3.83
2022-11-18T03:09:26.007Z,3.83
2022-11-18T03:11:27.276Z,3.83
2022-11-18T03:13:28.904Z,3.83
2022-11-18T03:17:31.886Z,3.83
2022-11-18T03:19:33.211Z,3.82
2022-11-18T03:21:34.205Z,3.82
2022-11-18T03:23:36.038Z,3.82
2022-11-18T03:25:37.305Z,3.82
2022-11-18T03:27:38.452Z,3.82
2022-11-18T03:29:40.060Z,3.82
2022-11-18T03:33:43.583Z,3.82
2022-11-18T03:35:45.020Z,3.82
2022-11-18T03:37:46.763Z,3.82
2022-11-18T03:39:47.975Z,3.82
2022-11-18T03:41:49.071Z,3.82
2022-11-18T03:43:50.750Z,3.82
2022-11-18T03:45:51.954Z,3.82
2022-11-18T03:49:54.330Z,3.82
2022-11-18T03:51:56.176Z,3.82
2022-11-18T03:53:57.784Z,3.82
2022-11-18T03:55:58.851Z,3.82
2022-11-18T04:00:01.509Z,3.82
2022-11-18T04:02:02.449Z,3.82
2022-11-18T04:06:04.534Z,3.82
2022-11-18T04:08:05.972Z,3.82
2022-11-18T04:10:07.475Z,3.82
2022-11-18T04:12:08.953Z,3.82
2022-11-18T04:16:12.183Z,3.82
2022-11-18T04:18:14.128Z,3.82
2022-11-18T04:20:15.155Z,3.82
2022-11-18T04:22:16.204Z,3.82
2022-11-18T04:24:17.539Z,3.82
2022-11-18T04:26:18.588Z,3.82
2022-11-18T04:28:20.471Z,3.82
2022-11-18T04:32:22.808Z,3.82
2022-11-18T04:34:23.864Z,3.82
2022-11-18T04:36:25.560Z,3.82
2022-11-18T04:38:26.723Z,3.82
2022-11-18T04:42:29.233Z,3.82
2022-11-18T04:44:30.858Z,3.82
2022-11-18T04:46:32.618Z,3.82
2022-11-18T04:48:34.360Z,3.82
2022-11-18T04:50:35.435Z,3.82
2022-11-18T04:52:36.490Z,3.82
2022-11-18T04:54:37.623Z,3.82
2022-11-18T04:58:40.668Z,3.81
2022-11-18T05:00:41.769Z,3.82
2022-11-18T05:02:42.974Z,3.81
2022-11-18T05:04:44.491Z,3.81
2022-11-18T05:06:45.653Z,3.81
2022-11-18T05:08:47.169Z,3.81
2022-11-18T05:10:48.658Z,3.81
2022-11-18T05:14:51.289Z,3.81
2022-11-18T05:16:53.002Z,3.81
2022-11-18T05:18:54.706Z,3.81
2022-11-18T05:20:56.097Z,3.81
2022-11-18T05:22:57.695Z,3.81
2022-11-18T05:24:58.925Z,3.81
2022-11-18T05:27:00.533Z,3.81
2022-11-18T05:31:03.334Z,3.81
2022-11-18T05:33:05.027Z,3.81
2022-11-18T05:35:06.438Z,3.81
2022-11-18T05:37:07.888Z,3.81
2022-11-18T05:41:11.118Z,3.81
2022-11-18T05:43:12.923Z,3.81
2022-11-18T05:47:15.750Z,3.81
2022-11-18T05:49:17.424Z,3.81
2022-11-18T05:51:18.724Z,3.81
2022-11-18T05:53:20.643Z,3.8
2022-11-18T05:57:23.528Z,3.81
2022-11-18T05:59:24.816Z,3.8
2022-11-18T06:01:26.717Z,3.8
2022-11-18T06:03:30.853Z,3.8
2022-11-18T06:05:28.963Z,3.8
2022-11-18T06:07:30.661Z,3.81
2022-11-18T06:09:31.627Z,3.8
2022-11-18T06:13:34.300Z,3.8
2022-11-18T06:15:35.558Z,3.8
2022-11-18T06:17:37.293Z,3.8
2022-11-18T06:19:38.716Z,3.8
2022-11-18T06:23:41.279Z,3.8
2022-11-18T06:25:42.904Z,3.8
2022-11-18T06:29:46.520Z,3.8
2022-11-18T06:31:47.931Z,3.8
2022-11-18T06:33:49.661Z,3.8
2022-11-18T06:35:51.530Z,3.8
2022-11-18T06:39:54.830Z,3.8
2022-11-18T06:41:55.877Z,3.8
2022-11-18T06:43:57.267Z,3.8
2022-11-18T06:45:58.966Z,3.8
2022-11-18T06:48:00.639Z,3.8
2022-11-18T06:50:02.272Z,3.8
2022-11-18T06:52:04.008Z,3.8
2022-11-18T06:56:07.008Z,3.8
2022-11-18T06:58:08.184Z,3.8
2022-11-18T07:00:09.565Z,3.8
2022-11-18T07:02:10.660Z,3.8
2022-11-18T07:06:13.710Z,3.8
2022-11-18T07:08:15.214Z,3.8
2022-11-18T07:10:16.877Z,3.8
2022-11-18T07:12:17.999Z,3.8
2022-11-18T07:14:19.636Z,3.8
2022-11-18T07:16:20.656Z,3.8
2022-11-18T07:18:22.031Z,3.8
2022-11-18T07:22:24.522Z,3.79
2022-11-18T07:24:26.131Z,3.79
2022-11-18T07:28:29.033Z,3.8
2022-11-18T07:30:30.007Z,3.8
2022-11-18T07:32:30.942Z,3.79
2022-11-18T07:34:32.593Z,3.79
2022-11-18T07:38:35.225Z,3.8
2022-11-18T07:40:36.389Z,3.79
2022-11-18T07:42:38.177Z,3.79
2022-11-18T07:44:39.859Z,3.8
2022-11-18T07:46:41.648Z,3.79
2022-11-18T07:48:43.353Z,3.79
2022-11-18T07:50:47.117Z,3.79
2022-11-18T07:54:48.130Z,3.8
2022-11-18T07:56:49.394Z,3.8
2022-11-18T07:58:51.070Z,3.79
2022-11-18T08:00:52.293Z,3.79
2022-11-18T08:04:55.286Z,3.79
2022-11-18T08:06:57.112Z,3.79
2022-11-18T08:08:58.858Z,3.79
2022-11-18T08:11:00.210Z,3.79
2022-11-18T08:13:01.414Z,3.79
2022-11-18T08:15:03.096Z,3.79
2022-11-18T08:17:04.112Z,3.79
2022-11-18T08:21:06.589Z,3.79
2022-11-18T08:23:08.454Z,3.79
2022-11-18T08:25:09.784Z,3.79
2022-11-18T08:27:10.977Z,3.78
2022-11-18T08:29:12.767Z,3.79
2022-11-18T08:31:14.498Z,3.79
2022-11-18T08:33:15.930Z,3.78
2022-11-18T08:37:18.558Z,3.78
2022-11-18T08:39:19.729Z,3.78
2022-11-18T08:41:21.368Z,3.78
2022-11-18T08:43:22.448Z,3.78
2022-11-18T08:47:26.064Z,3.78
2022-11-18T08:49:31.208Z,3.78
2022-11-18T08:53:29.991Z,3.78
2022-11-18T08:55:31.936Z,3.78
2022-11-18T08:57:33.636Z,3.78
2022-11-18T08:59:35.326Z,3.78
2022-11-18T09:03:37.593Z,3.78
2022-11-18T09:05:39.343Z,3.78
2022-11-18T09:07:40.946Z,3.78
2022-11-18T09:09:42.071Z,3.78
2022-11-18T09:11:44.036Z,3.78
2022-11-18T09:14:20.759Z,3.78
2022-11-18T09:15:46.461Z,3.78
2022-11-18T09:19:49.184Z,3.78
2022-11-18T09:21:50.284Z,3.78
2022-11-18T09:23:52.092Z,3.78
2022-11-18T09:25:53.652Z,3.78
2022-11-18T09:29:56.830Z,3.78
2022-11-18T09:31:57.903Z,3.78
2022-11-18T09:33:59.128Z,3.78
2022-11-18T09:36:00.364Z,3.78
2022-11-18T09:38:01.552Z,3.78
2022-11-18T09:40:03.415Z,3.78
2022-11-18T09:42:05.010Z,3.78
2022-11-18T09:46:08.356Z,3.78
2022-11-18T09:48:09.597Z,3.78
2022-11-18T09:50:55.174Z,3.78
2022-11-18T09:52:56.109Z,3.78
2022-11-18T09:56:58.687Z,3.78
2022-11-18T09:58:59.766Z,3.78
2022-11-18T10:01:01.218Z,3.78
2022-11-18T10:03:02.640Z,3.78
2022-11-18T10:05:04.126Z,3.78
2022-11-18T10:07:05.853Z,3.78
2022-11-18T10:09:07.347Z,3.78
2022-11-18T10:13:10.214Z,3.78
2022-11-18T10:15:12.079Z,3.78
2022-11-18T10:17:13.068Z,3.77
2022-11-18T10:19:14.695Z,3.78
2022-11-18T10:23:17.199Z,3.77
2022-11-18T10:25:18.716Z,3.77
2022-11-18T10:27:20.265Z,3.78
2022-11-18T10:29:21.455Z,3.78
2022-11-18T10:31:23.168Z,3.78
2022-11-18T10:33:24.700Z,3.77
2022-11-18T10:35:26.169Z,3.77
2022-11-18T10:39:29.262Z,3.78
2022-11-18T10:41:31.059Z,3.77
2022-11-18T10:43:32.895Z,3.77
2022-11-18T10:45:34.211Z,3.77
2022-11-18T10:47:36.050Z,3.77
2022-11-18T10:49:37.030Z,3.77
2022-11-18T10:51:38.110Z,3.77
2022-11-18T10:55:41.533Z,3.77
2022-11-18T10:57:42.710Z,3.77
2022-11-18T10:59:44.631Z,3.77
2022-11-18T11:01:45.923Z,3.77
2022-11-18T11:05:49.088Z,3.77
2022-11-18T11:07:51.059Z,3.77
2022-11-18T11:12:01.764Z,3.77
2022-11-18T11:13:55.691Z,3.77
2022-11-18T11:15:56.990Z,3.77
2022-11-18T11:17:58.965Z,3.77
2022-11-18T11:22:01.520Z,3.77
2022-11-18T11:24:02.975Z,3.77
2022-11-18T11:30:07.926Z,3.78
2022-11-18T11:32:09.656Z,3.78
2022-11-18T11:34:10.978Z,3.78
2022-11-18T11:38:13.163Z,3.79
2022-11-18T11:40:14.635Z,3.79
2022-11-18T11:42:16.334Z,3.79
2022-11-18T11:44:17.822Z,3.78
2022-11-18T11:48:20.720Z,3.78
2022-11-18T11:50:31.516Z,3.78
2022-11-18T11:54:25.424Z,3.78
2022-11-18T11:56:26.913Z,3.78
2022-11-18T11:58:27.971Z,3.78
2022-11-18T12:00:29.501Z,3.78
2022-11-18T12:04:32.958Z,3.78
2022-11-18T12:06:34.029Z,3.79
2022-11-18T12:08:35.138Z,3.79
2022-11-18T12:10:36.602Z,3.79
2022-11-18T12:12:37.994Z,3.79
2022-11-18T12:14:40.155Z,3.79
2022-11-18T12:16:41.436Z,3.79
2022-11-18T12:20:45.038Z,3.79
2022-11-18T12:22:46.108Z,3.79
2022-11-18T12:24:47.769Z,3.79
2022-11-18T12:26:48.949Z,3.79
2022-11-18T12:28:50.837Z,3.79
2022-11-18T12:30:52.741Z,3.79
2022-11-18T12:32:53.650Z,3.79
2022-11-18T12:34:55.339Z,3.79
2022-11-18T12:36:56.984Z,3.79
2022-11-18T12:38:58.305Z,3.79
2022-11-18T12:40:59.340Z,3.79
2022-11-18T12:43:00.656Z,3.79
2022-11-18T12:47:03.942Z,3.8
2022-11-18T12:49:05.651Z,3.8
2022-11-18T12:51:07.588Z,3.8
2022-11-18T12:53:09.210Z,3.8
2022-11-18T12:55:10.972Z,3.8
2022-11-18T12:57:12.378Z,3.8
2022-11-18T12:59:13.379Z,3.8
2022-11-18T13:03:16.357Z,3.8
2022-11-18T13:05:17.543Z,3.8
2022-11-18T13:07:19.204Z,3.8
2022-11-18T13:09:21.186Z,3.8
2022-11-18T13:13:23.766Z,3.8
2022-11-18T13:15:25.442Z,3.79
2022-11-18T13:17:26.386Z,3.79
2022-11-18T13:19:28.040Z,3.79
2022-11-18T13:21:29.382Z,3.79
2022-11-18T13:23:30.915Z,3.8
2022-11-18T13:25:32.554Z,3.8
2022-11-18T13:29:35.604Z,3.8
2022-11-18T13:31:37.057Z,3.8
2022-11-18T13:35:39.789Z,3.8
2022-11-18T13:37:40.979Z,3.8
2022-11-18T13:39:42.221Z,3.81
2022-11-18T13:41:43.536Z,3.81
2022-11-18T13:45:46.220Z,3.8
2022-11-18T13:47:47.418Z,3.8
2022-11-18T13:49:50.491Z,3.8
2022-11-18T13:51:49.883Z,3.8
2022-11-18T13:55:52.411Z,3.8
2022-11-18T13:57:53.600Z,3.79
2022-11-18T14:01:56.602Z,3.8
2022-11-18T14:03:58.209Z,3.8
2022-11-18T14:05:59.938Z,3.8
2022-11-18T14:08:01.288Z,3.79
2022-11-18T14:12:04.251Z,3.79
2022-11-18T14:14:05.228Z,3.79
2022-11-18T14:16:06.929Z,3.79
2022-11-18T14:18:08.663Z,3.79
2022-11-18T14:20:10.190Z,3.79
2022-11-18T14:22:13.005Z,3.8
2022-11-18T14:24:12.691Z,3.79
2022-11-18T14:28:15.359Z,3.79
2022-11-18T14:30:18.136Z,3.79
2022-11-18T14:32:18.762Z,3.79
2022-11-18T14:34:19.895Z,3.79
2022-11-18T14:36:21.344Z,3.79
2022-11-18T14:38:36.978Z,3.79
2022-11-18T14:40:24.184Z,3.79
2022-11-18T14:44:26.545Z,3.79
2022-11-18T14:46:27.736Z,3.79
2022-11-18T14:48:32.387Z,3.79
2022-11-18T14:50:31.207Z,3.78
2022-11-18T14:54:33.839Z,3.79
2022-11-18T14:56:34.527Z,3.79
2022-11-18T15:00:37.499Z,3.79
2022-11-18T15:02:38.796Z,3.78
2022-11-18T15:04:40.121Z,3.78
2022-11-18T15:06:41.217Z,3.78
2022-11-18T15:10:43.645Z,3.78
2022-11-18T15:12:45.319Z,3.78
2022-11-18T15:16:48.221Z,3.78
2022-11-18T15:18:49.707Z,3.78
2022-11-18T15:20:51.050Z,3.78
2022-11-18T15:22:52.293Z,3.78
2022-11-18T15:26:55.313Z,3.78
2022-11-18T15:28:56.724Z,3.78
2022-11-18T15:30:58.366Z,3.78
2022-11-18T15:32:59.569Z,3.78
2022-11-18T15:37:02.715Z,3.78
2022-11-18T15:39:04.374Z,3.78
2022-11-18T15:41:06.287Z,3.78
2022-11-18T15:43:08.207Z,3.78
2022-11-18T15:45:09.475Z,3.78
2022-11-18T15:47:10.527Z,3.77
2022-11-18T15:49:11.686Z,3.78
2022-11-18T15:51:12.720Z,3.78
2022-11-18T15:53:13.755Z,3.78
2022-11-18T15:55:15.366Z,3.78
2022-11-18T15:59:18.043Z,3.77
2022-11-18T16:01:19.736Z,3.77
2022-11-18T16:03:20.679Z,3.77
2022-11-18T16:05:21.665Z,3.77
2022-11-18T16:09:24.518Z,3.77
2022-11-18T16:11:25.638Z,3.78
2022-11-18T16:13:26.969Z,3.77
2022-11-18T16:15:28.150Z,3.77
2022-11-18T16:17:29.626Z,3.77
2022-11-18T16:19:31.585Z,3.77
2022-11-18T16:21:32.727Z,3.77
2022-11-18T16:25:35.299Z,3.77
2022-11-18T16:27:36.499Z,3.77
2022-11-18T16:31:39.964Z,3.77
2022-11-18T16:33:41.805Z,3.77
2022-11-18T16:35:43.285Z,3.77
2022-11-18T16:36:27.138Z,3.77
2022-11-18T16:38:28.954Z,3.77
2022-11-18T16:40:30.020Z,3.76
2022-11-18T16:42:31.638Z,3.77
2022-11-18T16:46:34.351Z,3.77
2022-11-18T16:48:35.722Z,3.77
2022-11-18T16:50:37.158Z,3.76
2022-11-18T16:52:38.808Z,3.76
2022-11-18T16:54:44.630Z,3.77
2022-11-18T16:56:41.355Z,3.76
2022-11-18T16:58:42.702Z,3.76
2022-11-18T17:02:45.139Z,3.76
2022-11-18T17:04:46.753Z,3.76
2022-11-18T17:06:47.875Z,3.76
2022-11-18T17:08:49.570Z,3.76
2022-11-18T17:10:50.733Z,3.76
2022-11-18T17:12:51.954Z,3.76
2022-11-18T17:14:53.332Z,3.76
2022-11-18T17:18:56.199Z,3.76
2022-11-18T17:20:57.727Z,3.76
2022-11-18T17:22:59.560Z,3.76
2022-11-18T17:25:05.247Z,3.76
2022-11-18T17:27:02.194Z,3.76
2022-11-18T17:29:04.062Z,3.76
2022-11-18T17:31:05.114Z,3.76
2022-11-18T17:35:08.398Z,3.76
2022-11-18T17:37:09.408Z,3.76
2022-11-18T17:39:11.314Z,3.76
2022-11-18T17:41:12.512Z,3.76
2022-11-18T17:45:15.378Z,3.76
2022-11-18T17:47:16.621Z,3.75
2022-11-18T17:51:19.673Z,3.75
2022-11-18T17:53:20.726Z,3.75
2022-11-18T17:55:22.198Z,3.76
2022-11-18T17:57:23.439Z,3.76
2022-11-18T18:01:26.363Z,3.75
2022-11-18T18:03:27.391Z,3.75
2022-11-18T18:05:28.410Z,3.75
2022-11-18T18:07:30.005Z,3.75
2022-11-18T18:09:31.621Z,3.75
2022-11-18T18:11:32.874Z,3.76
2022-11-18T18:13:34.670Z,3.75
2022-11-18T18:17:36.721Z,3.75
2022-11-18T18:19:38.274Z,3.75
2022-11-18T18:21:40.023Z,3.74
2022-11-18T18:23:41.068Z,3.75
2022-11-18T18:27:43.281Z,3.75
2022-11-18T18:29:44.801Z,3.75
2022-11-18T18:31:46.424Z,3.75
2022-11-18T18:33:47.496Z,3.75
2022-11-18T18:35:48.890Z,3.75
2022-11-18T18:37:49.935Z,3.75
2022-11-18T18:39:50.945Z,3.75
2022-11-18T18:43:54.066Z,3.74
2022-11-18T18:45:55.919Z,3.75
2022-11-18T18:49:58.966Z,3.74
2022-11-18T18:52:00.761Z,3.74
2022-11-18T18:54:02.395Z,3.74
2022-11-18T18:56:04.072Z,3.74
2022-11-18T19:00:07.400Z,3.74
2022-11-18T19:02:09.109Z,3.74
2022-11-18T19:04:10.885Z,3.74
2022-11-18T19:06:41.755Z,3.74
2022-11-18T19:10:15.749Z,3.74
2022-11-18T19:12:17.787Z,3.74
2022-11-18T19:14:19.357Z,3.74
2022-11-18T19:16:20.740Z,3.74
2022-11-18T19:18:21.806Z,3.74
2022-11-18T19:20:23.084Z,3.74
2022-11-18T19:22:24.606Z,3.74
2022-11-18T19:26:27.319Z,3.74
2022-11-18T19:28:28.874Z,3.74
2022-11-18T19:30:30.273Z,3.74
2022-11-18T19:32:31.357Z,3.74
2022-11-18T19:34:32.383Z,3.74
2022-11-18T19:36:33.811Z,3.74
2022-11-18T19:38:35.442Z,3.74
2022-11-18T19:42:37.740Z,3.73
2022-11-18T19:44:39.553Z,3.74
2022-11-18T19:46:41.343Z,3.74
2022-11-18T19:48:42.716Z,3.74
2022-11-18T19:50:44.617Z,3.74
2022-11-18T19:52:45.973Z,3.74
2022-11-18T19:54:47.240Z,3.74
2022-11-18T19:58:50.221Z,3.73
2022-11-18T20:00:51.378Z,3.73
2022-11-18T20:02:52.441Z,3.73
2022-11-18T20:04:54.075Z,3.73
2022-11-18T20:08:56.992Z,3.73
2022-11-18T20:10:58.070Z,3.73
2022-11-18T20:15:00.587Z,3.73
2022-11-18T20:17:02.375Z,3.73
2022-11-18T20:19:09.413Z,3.73
2022-11-18T20:21:06.095Z,3.73
2022-11-18T20:25:09.144Z,3.73
2022-11-18T20:27:10.524Z,3.73
2022-11-18T20:29:12.432Z,3.73
2022-11-18T20:31:13.578Z,3.73
2022-11-18T20:33:15.349Z,3.73
2022-11-18T20:35:16.977Z,3.73
2022-11-18T20:37:18.739Z,3.73
2022-11-18T20:41:22.002Z,3.73
2022-11-18T20:43:23.059Z,3.72
2022-11-18T20:45:24.641Z,3.72
2022-11-18T20:47:26.180Z,3.72
2022-11-18T20:51:28.943Z,3.73
2022-11-18T20:53:30.555Z,3.72
2022-11-18T20:57:34.022Z,3.72
2022-11-18T20:59:35.215Z,3.72
2022-11-18T21:01:36.908Z,3.73
2022-11-18T21:03:37.954Z,3.72
2022-11-18T21:07:41.308Z,3.72
2022-11-18T21:09:42.961Z,3.72
2022-11-18T21:11:44.753Z,3.72
2022-11-18T21:13:46.189Z,3.72
2022-11-18T21:15:47.469Z,3.72
2022-11-18T21:17:48.935Z,3.72
2022-11-18T21:19:50.808Z,3.72
2022-11-18T21:23:53.087Z,3.72
2022-11-18T21:25:54.329Z,3.72
2022-11-18T21:27:55.685Z,3.72
2022-11-18T21:29:56.883Z,3.72
2022-11-18T21:33:59.645Z,3.72
2022-11-18T21:36:01.261Z,3.72
2022-11-18T21:38:02.899Z,3.72
2022-11-18T21:40:04.664Z,3.72
2022-11-18T21:42:06.107Z,3.72
2022-11-18T21:44:07.331Z,3.72
2022-11-18T21:46:08.322Z,3.72
2022-11-18T21:50:11.636Z,3.72
2022-11-18T21:52:12.991Z,3.72
2022-11-18T21:56:16.475Z,3.72
2022-11-18T21:58:17.755Z,3.72
2022-11-18T22:00:19.094Z,3.72
2022-11-18T22:02:20.235Z,3.71
2022-11-18T22:06:23.034Z,3.72
2022-11-18T22:08:24.168Z,3.72
2022-11-18T22:10:25.416Z,3.72
2022-11-18T22:12:27.170Z,3.71
2022-11-18T22:14:28.174Z,3.71
2022-11-18T22:16:29.600Z,3.72
2022-11-18T22:18:31.375Z,3.71
2022-11-18T22:20:33.235Z,3.71
2022-11-18T22:22:34.411Z,3.71
2022-11-18T22:24:35.440Z,3.71
2022-11-18T22:26:37.137Z,3.71
2022-11-18T22:28:38.739Z,3.71
2022-11-18T22:32:41.451Z,3.71
2022-11-18T22:34:43.836Z,3.71
2022-11-18T22:36:44.716Z,3.71
2022-11-18T22:38:45.734Z,3.71
2022-11-18T22:40:46.991Z,3.71
2022-11-18T22:42:48.627Z,3.71
2022-11-18T22:44:50.249Z,3.71
2022-11-18T22:48:52.976Z,3.71
2022-11-18T22:50:54.146Z,3.71
2022-11-18T22:52:55.876Z,3.71
2022-11-18T22:54:57.823Z,3.71
2022-11-18T22:56:59.076Z,3.71
2022-11-18T22:59:00.888Z,3.71
2022-11-18T23:01:02.641Z,3.71
2022-11-18T23:05:05.443Z,3.7
2022-11-18T23:07:06.992Z,3.7
2022-11-18T23:09:07.961Z,3.71
2022-11-18T23:11:09.891Z,3.7
2022-11-18T23:15:12.288Z,3.7
2022-11-18T23:17:14.235Z,3.71
2022-11-18T23:19:15.317Z,3.7
2022-11-18T23:21:16.409Z,3.7
2022-11-18T23:22:00.275Z,3.7
2022-11-18T23:24:01.953Z,3.7
2022-11-18T23:26:03.547Z,3.7
2022-11-18T23:28:05.044Z,3.7
2022-11-18T23:30:06.034Z,3.7
2022-11-18T23:32:07.227Z,3.7
2022-11-18T23:34:08.365Z,3.7
2022-11-18T23:36:09.480Z,3.7
2022-11-18T23:38:10.520Z,3.7
2022-11-18T23:42:13.525Z,3.7
2022-11-18T23:44:15.094Z,3.7
2022-11-18T23:46:16.372Z,3.7
2022-11-18T23:48:17.595Z,3.7
2022-11-18T23:52:21.314Z,3.7
2022-11-18T23:54:22.372Z,3.7
2022-11-18T23:56:24.167Z,3.7
2022-11-18T23:58:25.577Z,3.7
